createdAt,value
2023-02-21T00:01:01.709Z,6.45
2023-02-21T00:03:49.003Z,3.92
2023-02-21T00:06:35.007Z,6.57
2023-02-21T00:09:20.598Z,2.88
2023-02-21T00:12:06.536Z,2.80
2023-02-21T00:14:52.667Z,4.80
2023-02-21T00:17:38.961Z,3.85
2023-02-21T00:20:27.299Z,4.30
2023-02-21T00:23:13.247Z,3.20
2023-02-21T00:25:58.594Z,3.00
2023-02-21T00:28:44.765Z,4.15
2023-02-21T00:31:30.283Z,3.42
2023-02-21T00:34:16.502Z,3.40
2023-02-21T00:37:03.487Z,3.05
2023-02-21T00:39:49.192Z,4.22
2023-02-21T00:42:35.257Z,3.17
2023-02-21T00:45:21.580Z,3.33
2023-02-21T00:48:07.300Z,2.80
2023-02-21T00:50:53.163Z,2.45
2023-02-21T00:53:43.377Z,2.47
2023-02-21T00:56:30.365Z,1.77
2023-02-21T00:59:16.063Z,2.67
2023-02-21T01:02:02.164Z,2.53
2023-02-21T01:04:47.782Z,1.65
2023-02-21T01:07:33.699Z,1.83
2023-02-21T01:10:21.036Z,2.95
2023-02-21T01:13:07.127Z,2.58
2023-02-21T01:15:53.220Z,1.65
2023-02-21T01:18:39.098Z,2.72
2023-02-21T01:21:24.980Z,2.33
2023-02-21T01:24:10.987Z,2.13
2023-02-21T01:26:58.064Z,4.07
2023-02-21T01:29:43.754Z,3.53
2023-02-21T01:32:29.177Z,2.80
2023-02-21T01:35:15.049Z,2.58
2023-02-21T01:38:01.322Z,1.85
2023-02-21T01:40:47.657Z,2.67
2023-02-21T01:43:36.506Z,2.97
2023-02-21T01:46:22.563Z,3.13
2023-02-21T01:49:10.677Z,4.03
2023-02-21T01:51:58.787Z,3.58
2023-02-21T01:54:51.416Z,2.42
2023-02-21T01:57:38.087Z,4.03
2023-02-21T02:00:27.570Z,2.63
2023-02-21T02:03:17.068Z,2.60
2023-02-21T02:06:05.711Z,4.57
2023-02-21T02:08:51.821Z,4.55
2023-02-21T02:11:51.640Z,5.00
2023-02-21T02:14:37.558Z,8.40
2023-02-21T02:17:12.660Z,4.03
2023-02-21T02:20:16.871Z,2.75
2023-02-21T02:23:07.993Z,4.05
2023-02-21T02:25:53.741Z,4.05
2023-02-21T02:28:39.602Z,5.43
2023-02-21T02:31:41.251Z,5.53
2023-02-21T02:34:38.380Z,3.88
2023-02-21T02:37:14.409Z,3.28
2023-02-21T02:39:47.809Z,4.28
2023-02-21T02:42:25.606Z,6.35
2023-02-21T02:44:59.219Z,3.28
2023-02-21T02:47:31.550Z,4.72
2023-02-21T02:50:02.175Z,4.72
2023-02-21T02:52:30.690Z,4.38
2023-02-21T02:55:00.543Z,6.50
2023-02-21T02:57:29.939Z,3.92
2023-02-21T02:59:59.012Z,5.70
2023-02-21T03:02:49.243Z,3.70
2023-02-21T03:05:29.257Z,10.48
2023-02-21T03:08:02.726Z,4.72
2023-02-21T03:10:39.935Z,5.78
2023-02-21T03:13:13.917Z,5.50
2023-02-21T03:15:47.573Z,5.32
2023-02-21T03:18:20.328Z,4.30
2023-02-21T03:20:53.388Z,3.65
2023-02-21T03:23:23.048Z,5.32
2023-02-21T03:25:52.653Z,4.63
2023-02-21T03:28:21.930Z,5.03
2023-02-21T03:30:53.319Z,5.85
2023-02-21T03:35:51.113Z,4.18
2023-02-21T03:38:19.588Z,3.88
2023-02-21T03:40:47.794Z,3.30
2023-02-21T03:43:16.439Z,3.65
2023-02-21T03:45:44.858Z,3.30
2023-02-21T03:48:17.670Z,3.75
2023-02-21T03:50:48.523Z,3.53
2023-02-21T03:53:18.524Z,3.45
2023-02-21T03:55:46.710Z,3.88
2023-02-21T03:58:15.344Z,6.72
2023-02-21T04:00:43.721Z,4.82
2023-02-21T04:03:12.301Z,4.30
2023-02-21T04:05:40.727Z,2.88
2023-02-21T04:08:09.299Z,3.70
2023-02-21T04:10:51.299Z,3.28
2023-02-21T04:13:21.080Z,4.28
2023-02-21T04:15:49.495Z,3.38
2023-02-21T04:18:18.052Z,3.35
2023-02-21T04:20:46.931Z,3.83
2023-02-21T04:23:18.772Z,4.50
2023-02-21T04:25:49.049Z,2.58
2023-02-21T04:28:17.753Z,3.70
2023-02-21T04:30:45.975Z,3.45
2023-02-21T04:33:14.515Z,2.63
2023-02-21T04:35:42.849Z,4.35
2023-02-21T04:38:11.399Z,5.18
2023-02-21T04:40:39.596Z,4.00
2023-02-21T04:43:09.575Z,4.20
2023-02-21T04:45:37.962Z,6.32
2023-02-21T04:48:07.054Z,7.13
2023-02-21T04:50:36.228Z,5.82
2023-02-21T04:53:04.816Z,4.80
2023-02-21T04:55:33.054Z,7.80
2023-02-21T04:58:01.602Z,5.78
2023-02-21T05:00:31.497Z,6.30
2023-02-21T05:03:00.119Z,7.15
2023-02-21T05:05:28.564Z,11.55
2023-02-21T05:07:57.146Z,7.10
2023-02-21T05:10:28.983Z,6.00
2023-02-21T05:13:05.680Z,7.50
2023-02-21T05:15:36.099Z,8.45
2023-02-21T05:18:04.622Z,6.10
2023-02-21T05:20:33.034Z,6.75
2023-02-21T05:23:11.704Z,7.80
2023-02-21T05:25:41.607Z,6.78
2023-02-21T05:28:10.544Z,7.93
2023-02-21T05:30:40.273Z,6.18
2023-02-21T05:33:08.777Z,7.28
2023-02-21T05:35:37.110Z,5.97
2023-02-21T05:38:05.622Z,5.13
2023-02-21T05:40:33.877Z,5.53
2023-02-21T05:43:02.457Z,6.75
2023-02-21T05:45:30.811Z,5.60
2023-02-21T05:48:02.563Z,5.25
2023-02-21T05:50:31.169Z,8.25
2023-02-21T05:53:00.487Z,5.85
2023-02-21T05:55:28.882Z,7.05
2023-02-21T05:57:57.452Z,9.65
2023-02-21T06:00:28.226Z,8.85
2023-02-21T06:02:57.375Z,14.10
2023-02-21T06:05:27.444Z,9.10
2023-02-21T06:07:55.954Z,9.70
2023-02-21T06:10:24.136Z,9.70
2023-02-21T06:12:52.589Z,11.30
2023-02-21T06:15:20.913Z,10.25
2023-02-21T06:17:49.467Z,11.57
2023-02-21T06:20:18.001Z,18.27
2023-02-21T06:22:48.175Z,12.48
2023-02-21T06:25:17.214Z,8.25
2023-02-21T06:27:45.813Z,21.40
2023-02-21T06:30:14.982Z,24.25
2023-02-21T06:32:43.721Z,19.77
2023-02-21T06:35:12.143Z,55.50
2023-02-21T06:37:40.747Z,25.85
2023-02-21T06:40:11.181Z,53.83
2023-02-21T06:42:39.752Z,50.85
2023-02-21T06:45:08.680Z,39.80
2023-02-21T06:47:37.722Z,9.32
2023-02-21T06:50:09.201Z,9.38
2023-02-21T06:52:38.812Z,8.15
2023-02-21T06:55:08.419Z,4.72
2023-02-21T06:57:38.394Z,4.88
2023-02-21T07:00:07.849Z,6.20
2023-02-21T07:02:36.375Z,8.95
2023-02-21T07:05:04.675Z,9.73
2023-02-21T07:07:33.267Z,11.80
2023-02-21T07:10:01.618Z,7.43
2023-02-21T07:12:30.334Z,8.18
2023-02-21T07:15:00.161Z,7.07
2023-02-21T07:17:28.936Z,6.13
2023-02-21T07:19:57.205Z,4.75
2023-02-21T07:22:26.376Z,7.10
2023-02-21T07:24:55.165Z,6.38
2023-02-21T07:27:24.414Z,5.57
2023-02-21T07:29:52.650Z,10.85
2023-02-21T07:34:51.260Z,10.90
2023-02-21T07:37:19.827Z,10.02
2023-02-21T07:39:48.176Z,7.25
2023-02-21T07:42:16.649Z,7.40
2023-02-21T07:44:45.003Z,9.57
2023-02-21T07:47:13.644Z,9.57
2023-02-21T07:49:43.341Z,9.70
2023-02-21T07:52:12.290Z,8.65
2023-02-21T07:54:40.490Z,7.82
2023-02-21T07:57:09.043Z,10.30
2023-02-21T07:59:37.524Z,15.23
2023-02-21T08:02:06.468Z,9.52
2023-02-21T08:04:34.839Z,15.18
2023-02-21T08:07:06.366Z,11.55
2023-02-21T08:09:35.042Z,8.15
2023-02-21T08:12:03.760Z,9.00
2023-02-21T08:14:34.425Z,6.68
2023-02-21T08:17:03.020Z,6.90
2023-02-21T08:19:31.306Z,7.72
2023-02-21T08:21:59.827Z,6.45
2023-02-21T08:24:29.544Z,5.60
2023-02-21T08:26:58.069Z,6.20
2023-02-21T08:29:26.352Z,5.15
2023-02-21T08:31:55.104Z,7.43
2023-02-21T08:34:24.861Z,8.70
2023-02-21T08:36:53.422Z,6.57
2023-02-21T08:39:21.803Z,7.32
2023-02-21T08:41:52.616Z,7.40
2023-02-21T08:44:22.855Z,7.07
2023-02-21T08:46:51.516Z,6.68
2023-02-21T08:49:19.801Z,7.72
2023-02-21T08:51:48.747Z,6.85
2023-02-21T08:54:16.995Z,8.55
2023-02-21T08:56:45.535Z,6.63
2023-02-21T08:59:15.217Z,7.18
2023-02-21T09:01:43.826Z,8.20
2023-02-21T09:04:12.327Z,5.47
2023-02-21T09:06:40.993Z,3.90
2023-02-21T09:09:09.308Z,6.72
2023-02-21T09:11:38.018Z,5.07
2023-02-21T09:14:06.955Z,7.07
2023-02-21T09:16:37.025Z,4.80
2023-02-21T09:19:06.809Z,3.25
2023-02-21T09:21:35.716Z,3.08
2023-02-21T09:24:05.626Z,3.95
2023-02-21T09:26:34.356Z,11.38
2023-02-21T09:29:02.679Z,3.55
2023-02-21T09:31:31.567Z,5.55
2023-02-21T09:34:01.321Z,4.97
2023-02-21T09:36:29.832Z,3.15
2023-02-21T09:38:59.164Z,4.75
2023-02-21T09:41:28.872Z,3.38
2023-02-21T09:43:57.188Z,3.55
2023-02-21T09:46:32.446Z,4.65
2023-02-21T09:49:03.855Z,3.25
2023-02-21T09:51:33.299Z,3.03
2023-02-21T09:54:01.983Z,4.32
2023-02-21T09:56:34.170Z,4.93
2023-02-21T09:59:02.875Z,4.65
2023-02-21T10:01:42.581Z,4.50
2023-02-21T10:04:17.297Z,4.35
2023-02-21T10:06:52.767Z,6.25
2023-02-21T10:09:27.488Z,3.15
2023-02-21T10:12:00.843Z,7.28
2023-02-21T10:14:34.892Z,3.95
2023-02-21T10:17:07.020Z,7.70
2023-02-21T10:19:39.119Z,5.85
2023-02-21T10:22:14.903Z,4.57
2023-02-21T10:24:43.679Z,4.50
2023-02-21T10:27:18.557Z,3.22
2023-02-21T10:29:50.893Z,5.30
2023-02-21T10:32:20.002Z,6.45
2023-02-21T10:34:50.428Z,3.30
2023-02-21T10:37:29.847Z,2.63
2023-02-21T10:40:02.805Z,4.45
2023-02-21T10:42:35.527Z,4.68
2023-02-21T10:45:04.689Z,7.63
2023-02-21T10:47:42.181Z,7.20
2023-02-21T10:50:13.005Z,7.18
2023-02-21T10:52:49.316Z,6.47
2023-02-21T10:55:31.939Z,4.18
2023-02-21T10:58:10.138Z,5.85
2023-02-21T11:00:39.977Z,3.97
2023-02-21T11:03:21.293Z,4.25
2023-02-21T11:05:52.628Z,7.82
2023-02-21T11:08:40.194Z,3.92
2023-02-21T11:11:09.048Z,6.53
2023-02-21T11:13:38.645Z,3.90
2023-02-21T11:16:13.108Z,6.15
2023-02-21T11:18:41.796Z,9.68
2023-02-21T11:21:16.986Z,6.05
2023-02-21T11:23:47.906Z,3.80
2023-02-21T11:26:16.714Z,2.65
2023-02-21T11:28:46.700Z,2.60
2023-02-21T11:31:18.890Z,3.38
2023-02-21T11:33:52.923Z,4.15
2023-02-21T11:36:28.620Z,6.50
2023-02-21T11:39:06.636Z,6.60
2023-02-21T11:41:39.271Z,5.93
2023-02-21T11:44:33.961Z,4.75
2023-02-21T11:47:16.691Z,4.20
2023-02-21T11:49:52.256Z,4.05
2023-02-21T11:52:24.412Z,4.72
2023-02-21T11:54:52.969Z,4.78
2023-02-21T11:57:26.290Z,3.72
2023-02-21T12:00:01.204Z,3.00
2023-02-21T12:03:01.309Z,4.07
2023-02-21T12:05:43.216Z,4.40
2023-02-21T12:08:47.830Z,2.53
2023-02-21T12:11:49.079Z,2.33
2023-02-21T12:14:29.888Z,3.22
2023-02-21T12:17:10.327Z,3.30
2023-02-21T12:19:53.254Z,3.90
2023-02-21T12:22:33.920Z,4.32
2023-02-21T12:25:13.226Z,2.95
2023-02-21T12:27:50.589Z,4.13
2023-02-21T12:30:39.922Z,2.80
2023-02-21T12:33:19.221Z,4.38
2023-02-21T12:36:22.949Z,10.77
2023-02-21T12:39:07.683Z,10.63
2023-02-21T12:41:47.606Z,4.72
2023-02-21T12:44:18.645Z,5.95
2023-02-21T12:46:52.934Z,5.35
2023-02-21T12:49:26.300Z,5.00
2023-02-21T12:52:00.598Z,5.80
2023-02-21T12:54:39.899Z,4.35
2023-02-21T12:57:14.622Z,6.90
2023-02-21T12:59:55.872Z,3.28
2023-02-21T13:02:28.669Z,5.18
2023-02-21T13:05:00.752Z,3.33
2023-02-21T13:07:35.612Z,4.63
2023-02-21T13:10:07.707Z,3.08
2023-02-21T13:12:45.307Z,4.88
2023-02-21T13:15:22.032Z,2.28
2023-02-21T13:17:57.162Z,3.50
2023-02-21T13:20:27.344Z,2.15
2023-02-21T13:23:15.779Z,2.88
2023-02-21T13:25:55.035Z,2.97
2023-02-21T13:28:26.127Z,3.22
2023-02-21T13:33:27.609Z,3.88
2023-02-21T13:35:59.708Z,3.28
2023-02-21T13:38:29.462Z,6.07
2023-02-21T13:41:07.112Z,4.55
2023-02-21T13:43:38.639Z,2.97
2023-02-21T13:46:26.706Z,2.17
2023-02-21T13:49:28.460Z,2.88
2023-02-21T13:52:16.551Z,2.83
2023-02-21T13:55:21.652Z,5.07
2023-02-21T13:57:54.257Z,3.47
2023-02-21T14:00:49.718Z,2.75
2023-02-21T14:03:33.231Z,3.33
2023-02-21T14:06:40.336Z,16.42
2023-02-21T14:09:14.841Z,5.97
2023-02-21T14:11:46.554Z,3.72
2023-02-21T14:14:27.700Z,3.30
2023-02-21T14:17:02.721Z,5.30
2023-02-21T14:19:37.556Z,4.07
2023-02-21T14:22:12.273Z,3.63
2023-02-21T14:24:43.901Z,3.33
2023-02-21T14:30:24.459Z,7.75
2023-02-21T14:32:57.441Z,5.53
2023-02-21T14:35:30.811Z,8.35
2023-02-21T14:38:01.465Z,5.55
2023-02-21T14:40:37.273Z,7.15
2023-02-21T14:43:16.363Z,5.47
2023-02-21T14:46:00.875Z,3.40
2023-02-21T14:49:00.421Z,4.85
2023-02-21T14:51:55.885Z,4.97
2023-02-21T14:54:37.496Z,4.70
2023-02-21T14:57:22.300Z,3.67
2023-02-21T15:00:12.052Z,3.65
2023-02-21T15:02:44.881Z,3.90
2023-02-21T15:05:18.533Z,6.70
2023-02-21T15:07:55.217Z,5.75
2023-02-21T15:10:26.057Z,3.88
2023-02-21T15:12:57.379Z,3.97
2023-02-21T15:15:28.649Z,4.85
2023-02-21T15:18:00.861Z,5.68
2023-02-21T15:20:35.180Z,5.45
2023-02-21T15:23:15.501Z,6.25
2023-02-21T15:25:54.481Z,4.90
2023-02-21T15:28:29.545Z,5.72
2023-02-21T15:31:04.297Z,5.82
2023-02-21T15:33:35.720Z,7.20
2023-02-21T15:36:09.426Z,3.72
2023-02-21T15:38:43.828Z,6.00
2023-02-21T15:43:49.523Z,7.10
2023-02-21T15:46:21.261Z,5.90
2023-02-21T15:48:49.938Z,10.93
2023-02-21T15:51:19.866Z,5.68
2023-02-21T15:54:09.209Z,4.85
2023-02-21T15:56:37.616Z,7.47
2023-02-21T15:59:15.034Z,18.02
2023-02-21T16:01:43.425Z,23.02
2023-02-21T16:04:16.822Z,10.05
2023-02-21T16:06:55.380Z,10.10
2023-02-21T16:09:27.515Z,10.48
2023-02-21T16:11:59.377Z,13.50
2023-02-21T16:14:36.691Z,14.10
2023-02-21T16:17:14.899Z,11.20
2023-02-21T16:19:47.829Z,14.70
2023-02-21T16:22:28.259Z,11.75
2023-02-21T16:25:08.636Z,8.43
2023-02-21T16:27:36.968Z,4.57
2023-02-21T16:30:07.026Z,8.07
2023-02-21T16:32:36.564Z,9.60
2023-02-21T16:35:05.154Z,10.23
2023-02-21T16:37:34.738Z,5.55
2023-02-21T16:40:04.256Z,10.77
2023-02-21T16:42:32.586Z,10.15
2023-02-21T16:45:01.043Z,8.45
2023-02-21T16:47:29.398Z,5.65
2023-02-21T16:49:58.043Z,6.72
2023-02-21T16:52:28.768Z,11.10
2023-02-21T16:55:00.219Z,9.90
2023-02-21T16:57:28.490Z,9.80
2023-02-21T16:59:57.132Z,9.20
2023-02-21T17:02:26.422Z,14.65
2023-02-21T17:04:55.020Z,15.00
2023-02-21T17:07:24.384Z,7.80
2023-02-21T17:09:53.976Z,9.05
2023-02-21T17:12:23.628Z,8.98
2023-02-21T17:14:52.243Z,8.35
2023-02-21T17:17:20.545Z,8.23
2023-02-21T17:19:49.037Z,7.85
2023-02-21T17:22:17.257Z,8.82
2023-02-21T17:24:45.862Z,8.00
2023-02-21T17:27:14.035Z,8.48
2023-02-21T17:29:44.285Z,5.65
2023-02-21T17:32:14.120Z,12.80
2023-02-21T17:34:44.063Z,17.23
2023-02-21T17:37:12.294Z,13.63
2023-02-21T17:39:40.763Z,11.27
2023-02-21T17:42:09.045Z,9.57
2023-02-21T17:44:38.319Z,11.88
2023-02-21T17:47:08.868Z,10.77
2023-02-21T17:49:37.367Z,14.52
2023-02-21T17:52:05.834Z,11.30
2023-02-21T17:54:34.364Z,8.63
2023-02-21T17:57:04.927Z,13.43
2023-02-21T17:59:33.655Z,10.50
2023-02-21T18:02:02.319Z,10.80
2023-02-21T18:04:32.406Z,10.48
2023-02-21T18:07:00.967Z,8.05
2023-02-21T18:09:29.538Z,9.63
2023-02-21T18:11:58.829Z,11.23
2023-02-21T18:14:30.407Z,9.52
2023-02-21T18:16:58.944Z,17.35
2023-02-21T18:19:27.776Z,24.35
2023-02-21T18:21:57.339Z,26.88
2023-02-21T18:24:27.571Z,29.77
2023-02-21T18:26:55.814Z,20.67
2023-02-21T18:29:24.345Z,21.25
2023-02-21T18:31:54.507Z,17.25
2023-02-21T18:34:23.200Z,19.97
2023-02-21T18:36:53.347Z,14.20
2023-02-21T18:39:24.603Z,13.37
2023-02-21T18:41:53.452Z,9.82
2023-02-21T18:44:22.048Z,18.08
2023-02-21T18:46:51.472Z,11.57
2023-02-21T18:49:19.947Z,13.15
2023-02-21T18:51:48.246Z,13.93
2023-02-21T18:54:16.898Z,11.85
2023-02-21T18:56:50.370Z,11.95
2023-02-21T18:59:19.495Z,17.25
2023-02-21T19:01:49.753Z,13.32
2023-02-21T19:04:18.969Z,18.20
2023-02-21T19:06:47.727Z,23.40
2023-02-21T19:09:16.194Z,22.27
2023-02-21T19:11:44.451Z,23.27
2023-02-21T19:14:14.360Z,21.40
2023-02-21T19:16:42.552Z,17.30
2023-02-21T19:19:11.228Z,15.27
2023-02-21T19:21:39.453Z,12.77
2023-02-21T19:24:08.025Z,14.15
2023-02-21T19:26:39.166Z,15.52
2023-02-21T19:29:08.679Z,15.02
2023-02-21T19:31:38.480Z,19.90
2023-02-21T19:34:07.056Z,18.70
2023-02-21T19:36:39.042Z,16.83
2023-02-21T19:39:09.119Z,16.70
2023-02-21T19:41:37.627Z,19.10
2023-02-21T19:44:06.998Z,17.90
2023-02-21T19:46:35.495Z,17.25
2023-02-21T19:49:07.109Z,14.45
2023-02-21T19:54:03.871Z,15.50
2023-02-21T19:56:32.186Z,18.58
2023-02-21T19:59:00.813Z,22.13
2023-02-21T20:01:30.327Z,18.92
2023-02-21T20:03:59.152Z,17.70
2023-02-21T20:06:29.142Z,17.90
2023-02-21T20:08:57.783Z,24.83
2023-02-21T20:11:26.040Z,18.08
2023-02-21T20:13:54.655Z,19.38
2023-02-21T20:16:22.894Z,21.27
2023-02-21T20:18:54.499Z,16.98
2023-02-21T20:23:53.710Z,21.88
2023-02-21T20:26:23.337Z,22.10
2023-02-21T20:28:52.402Z,20.48
2023-02-21T20:31:21.700Z,22.15
2023-02-21T20:33:50.875Z,22.45
2023-02-21T20:36:19.198Z,20.88
2023-02-21T20:38:47.770Z,31.88
2023-02-21T20:41:17.737Z,16.83
2023-02-21T20:43:46.546Z,17.70
2023-02-21T20:46:14.786Z,17.13
2023-02-21T20:48:43.366Z,20.05
2023-02-21T20:51:12.542Z,24.88
2023-02-21T20:53:43.121Z,48.30
2023-02-21T20:56:11.710Z,112.95
2023-02-21T20:58:41.804Z,105.97
2023-02-21T21:01:14.313Z,94.63
2023-02-21T21:03:43.176Z,85.28
2023-02-21T21:06:30.400Z,121.93
2023-02-21T21:08:59.225Z,91.03
2023-02-21T21:11:28.879Z,45.20
2023-02-21T21:13:59.100Z,40.22
2023-02-21T21:16:27.430Z,55.85
2023-02-21T21:18:57.426Z,56.28
2023-02-21T21:21:38.726Z,47.88
2023-02-21T21:26:36.113Z,54.55
2023-02-21T21:29:07.545Z,53.33
2023-02-21T21:31:45.649Z,47.33
2023-02-21T21:34:14.387Z,52.00
2023-02-21T21:36:51.713Z,59.58
2023-02-21T21:39:23.461Z,65.88
2023-02-21T21:41:58.693Z,74.85
2023-02-21T21:44:29.897Z,83.63
2023-02-21T21:47:01.047Z,92.32
2023-02-21T21:51:59.807Z,72.55
2023-02-21T21:54:36.097Z,74.40
2023-02-21T21:57:07.986Z,68.68
2023-02-21T21:59:41.064Z,61.00
2023-02-21T22:02:10.446Z,54.88
2023-02-21T22:04:40.365Z,56.60
2023-02-21T22:07:09.775Z,50.30
2023-02-21T22:09:38.332Z,42.47
2023-02-21T22:12:07.912Z,60.60
2023-02-21T22:14:37.996Z,67.65
2023-02-21T22:17:06.480Z,49.15
2023-02-21T22:19:35.801Z,50.30
2023-02-21T22:22:08.296Z,42.55
2023-02-21T22:24:40.666Z,44.60
2023-02-21T22:27:09.524Z,37.05
2023-02-21T22:29:39.692Z,33.85
2023-02-21T22:32:10.157Z,40.13
2023-02-21T22:34:38.914Z,36.83
2023-02-21T22:37:07.153Z,34.28
2023-02-21T22:39:35.928Z,41.17
2023-02-21T22:42:08.895Z,44.90
2023-02-21T22:44:37.697Z,40.40
2023-02-21T22:47:07.430Z,40.08
2023-02-21T22:49:36.007Z,36.72
2023-02-21T22:52:04.350Z,36.10
2023-02-21T22:54:32.881Z,42.70
2023-02-21T22:57:01.810Z,39.22
2023-02-21T22:59:30.554Z,42.97
2023-02-21T23:01:59.515Z,48.22
2023-02-21T23:04:37.457Z,62.22
2023-02-21T23:07:06.380Z,55.90
2023-02-21T23:09:37.181Z,56.47
2023-02-21T23:12:07.370Z,51.40
2023-02-21T23:14:35.930Z,47.50
2023-02-21T23:17:04.271Z,46.25
2023-02-21T23:19:34.677Z,42.47
2023-02-21T23:22:03.891Z,49.28
2023-02-21T23:24:32.461Z,48.90
2023-02-21T23:27:02.973Z,44.67
2023-02-21T23:29:31.555Z,44.88
2023-02-21T23:32:10.062Z,41.30
2023-02-21T23:34:43.024Z,45.95
2023-02-21T23:37:13.181Z,42.33
2023-02-21T23:39:42.735Z,48.10
2023-02-21T23:42:11.980Z,45.83
2023-02-21T23:44:41.333Z,45.67
2023-02-21T23:47:09.618Z,42.85
2023-02-21T23:49:44.210Z,42.28
2023-02-21T23:52:15.985Z,39.78
2023-02-21T23:54:44.824Z,46.10
2023-02-21T23:57:14.994Z,38.97
2023-02-21T23:59:43.467Z,46.33
